Time;durP1;ratioP1;P1;durP2;ratioP2;P2;SDS_P1;SDS_P2;PMS_P1;PMS_P2;Temp;Humidity;BMP_temperature;BMP_pressure;BME280_temperature;BME280_humidity;BME280_pressure;Samples;Min_cycle;Max_cycle;Signal;HPM_P1;HPM_P2
2022/05/15 00:01:03;;;;;;;8.20;4.60;;;;;;;;;;5055415;28;20025;-71
2022/05/15 00:03:37;;;;;;;7.13;5.00;;;;;;;;;;5055590;28;20365;-71
2022/05/15 00:06:04;;;;;;;8.75;5.30;;;;;;;;;;5055388;28;20036;-71
2022/05/15 00:08:31;;;;;;;7.55;4.85;;;;;;;;;;5055259;28;20477;-71
2022/05/15 00:10:57;;;;;;;10.02;5.32;;;;;;;;;;5055132;28;20048;-70
2022/05/15 00:13:23;;;;;;;6.70;4.97;;;;;;;;;;5055241;28;20030;-70
2022/05/15 00:15:49;;;;;;;5.72;4.95;;;;;;;;;;5055293;28;20029;-70
2022/05/15 00:18:15;;;;;;;8.90;5.40;;;;;;;;;;5055202;28;20511;-70
2022/05/15 00:20:40;;;;;;;7.75;4.97;;;;;;;;;;5055126;28;20080;-70
2022/05/15 00:23:07;;;;;;;7.20;5.50;;;;;;;;;;5054844;28;20048;-70
2022/05/15 00:25:33;;;;;;;8.05;5.13;;;;;;;;;;5054980;28;20033;-70
2022/05/15 00:27:59;;;;;;;9.52;5.13;;;;;;;;;;5055370;28;20021;-70
2022/05/15 00:30:24;;;;;;;7.57;5.28;;;;;;;;;;5055101;28;20423;-70
2022/05/15 00:32:50;;;;;;;10.07;4.25;;;;;;;;;;5054920;28;20100;-69
2022/05/15 00:35:15;;;;;;;8.98;5.05;;;;;;;;;;5054817;28;20074;-70
2022/05/15 00:37:41;;;;;;;9.75;5.53;;;;;;;;;;5036537;28;20028;-70
2022/05/15 00:40:07;;;;;;;11.20;5.40;;;;;;;;;;5054764;28;20151;-70
2022/05/15 00:42:32;;;;;;;9.05;5.32;;;;;;;;;;5054506;28;20368;-70
2022/05/15 00:44:57;;;;;;;9.13;5.60;;;;;;;;;;5036959;28;20032;-70
2022/05/15 00:47:23;;;;;;;10.32;6.03;;;;;;;;;;5036882;28;20115;-70
2022/05/15 00:49:48;;;;;;;9.40;5.97;;;;;;;;;;5054730;28;20531;-69
2022/05/15 00:52:16;;;;;;;8.55;5.50;;;;;;;;;;5036674;28;20358;-69
2022/05/15 00:54:45;;;;;;;9.88;5.75;;;;;;;;;;5054541;28;20426;-70
2022/05/15 00:57:17;;;;;;;13.00;5.88;;;;;;;;;;5054020;28;20021;-69
2022/05/15 00:59:47;;;;;;;8.77;5.32;;;;;;;;;;5036754;28;20063;-70
2022/05/15 01:02:13;;;;;;;8.88;5.38;;;;;;;;;;5036510;28;20063;-69
2022/05/15 01:04:39;;;;;;;6.90;4.72;;;;;;;;;;5054296;28;20036;-69
2022/05/15 01:07:04;;;;;;;8.52;5.55;;;;;;;;;;5036424;28;20032;-71
2022/05/15 01:09:30;;;;;;;9.00;5.10;;;;;;;;;;5036120;28;20028;-70
2022/05/15 01:11:57;;;;;;;10.68;6.18;;;;;;;;;;5036178;28;20086;-70
2022/05/15 01:14:22;;;;;;;13.35;5.93;;;;;;;;;;5036166;28;20021;-69
2022/05/15 01:16:48;;;;;;;11.15;6.20;;;;;;;;;;5054312;28;20373;-70
2022/05/15 01:19:14;;;;;;;9.20;5.32;;;;;;;;;;5035921;28;20101;-69
2022/05/15 01:21:51;;;;;;;7.43;5.22;;;;;;;;;;5036224;28;20021;-69
2022/05/15 01:24:18;;;;;;;6.93;4.97;;;;;;;;;;5036090;28;20047;-69
2022/05/15 01:26:44;;;;;;;6.68;4.72;;;;;;;;;;5036151;28;20465;-70
2022/05/15 01:29:11;;;;;;;8.13;4.60;;;;;;;;;;5036134;28;20037;-70
2022/05/15 01:31:37;;;;;;;7.53;4.82;;;;;;;;;;5036071;28;20040;-70
2022/05/15 01:34:05;;;;;;;9.18;5.40;;;;;;;;;;5035637;28;20025;-70
2022/05/15 01:36:31;;;;;;;6.53;5.22;;;;;;;;;;5019297;28;20492;-70
2022/05/15 01:38:58;;;;;;;8.48;4.88;;;;;;;;;;5036246;28;20063;-70
2022/05/15 01:41:24;;;;;;;7.00;4.65;;;;;;;;;;5035907;28;20357;-70
2022/05/15 01:43:53;;;;;;;7.38;4.57;;;;;;;;;;5036082;28;20029;-70
2022/05/15 01:46:23;;;;;;;7.83;4.60;;;;;;;;;;5035823;28;20021;-71
2022/05/15 01:48:50;;;;;;;5.53;4.78;;;;;;;;;;5036426;28;20032;-70
2022/05/15 01:51:15;;;;;;;7.57;4.93;;;;;;;;;;5035780;28;20021;-70
2022/05/15 01:53:41;;;;;;;7.10;4.35;;;;;;;;;;5054484;28;20078;-71
2022/05/15 01:56:06;;;;;;;6.43;4.35;;;;;;;;;;5058041;28;20147;-70
2022/05/15 01:58:33;;;;;;;7.30;4.50;;;;;;;;;;5039678;28;20029;-70
2022/05/15 02:00:58;;;;;;;5.95;4.72;;;;;;;;;;5039726;28;20021;-70
2022/05/15 02:03:24;;;;;;;5.40;4.20;;;;;;;;;;5039730;28;20040;-70
2022/05/15 02:05:50;;;;;;;7.60;4.72;;;;;;;;;;5040028;28;20083;-70
2022/05/15 02:08:18;;;;;;;7.80;5.22;;;;;;;;;;5039563;28;20086;-70
2022/05/15 02:10:43;;;;;;;6.75;4.97;;;;;;;;;;5039767;28;20013;-69
2022/05/15 02:13:09;;;;;;;6.70;5.05;;;;;;;;;;5057529;28;20534;-69
2022/05/15 02:15:34;;;;;;;7.57;4.82;;;;;;;;;;5057836;28;20037;-69
2022/05/15 02:18:02;;;;;;;7.00;4.95;;;;;;;;;;5057708;28;20521;-70
2022/05/15 02:20:28;;;;;;;8.73;5.60;;;;;;;;;;5057638;28;20049;-70
2022/05/15 02:22:53;;;;;;;6.35;5.05;;;;;;;;;;5039456;28;20083;-70
2022/05/15 02:25:20;;;;;;;6.18;4.72;;;;;;;;;;5039742;28;20056;-70
2022/05/15 02:27:46;;;;;;;7.45;4.82;;;;;;;;;;5039394;28;20060;-70
2022/05/15 02:30:13;;;;;;;9.23;4.90;;;;;;;;;;5039270;28;20048;-70
2022/05/15 02:32:38;;;;;;;5.72;4.93;;;;;;;;;;5039186;28;20040;-71
2022/05/15 02:35:05;;;;;;;11.50;4.82;;;;;;;;;;5038822;28;20031;-71
2022/05/15 02:37:30;;;;;;;9.40;4.57;;;;;;;;;;5039308;28;20120;-71
2022/05/15 02:39:55;;;;;;;9.50;4.67;;;;;;;;;;5057289;28;20033;-71
2022/05/15 02:42:21;;;;;;;8.00;4.68;;;;;;;;;;5039161;28;20271;-71
2022/05/15 02:44:47;;;;;;;5.97;4.95;;;;;;;;;;5038996;28;20025;-71
2022/05/15 02:47:13;;;;;;;5.63;4.47;;;;;;;;;;5057029;28;20029;-71
2022/05/15 02:52:22;;;;;;;4.93;4.28;;;;;;;;;;5057060;28;20025;-71
2022/05/15 02:54:47;;;;;;;7.07;4.65;;;;;;;;;;5039057;28;20505;-71
2022/05/15 02:57:13;;;;;;;8.15;4.53;;;;;;;;;;5056771;28;20031;-71
2022/05/15 02:59:38;;;;;;;7.22;4.95;;;;;;;;;;5038732;28;20021;-72
2022/05/15 03:02:04;;;;;;;6.28;4.93;;;;;;;;;;5056883;28;20031;-71
2022/05/15 03:04:31;;;;;;;5.18;3.90;;;;;;;;;;5038645;28;20021;-71
2022/05/15 03:06:57;;;;;;;7.03;4.57;;;;;;;;;;5039318;28;20053;-71
2022/05/15 03:09:23;;;;;;;5.95;4.53;;;;;;;;;;5038838;28;20067;-71
2022/05/15 03:11:48;;;;;;;4.63;4.15;;;;;;;;;;5038498;28;20053;-71
2022/05/15 03:14:14;;;;;;;7.13;4.55;;;;;;;;;;5056688;28;20021;-71
2022/05/15 03:16:39;;;;;;;4.78;4.32;;;;;;;;;;5056096;28;20119;-71
2022/05/15 03:19:05;;;;;;;4.78;4.28;;;;;;;;;;5038435;28;20078;-71
2022/05/15 03:21:30;;;;;;;6.13;4.30;;;;;;;;;;5038329;28;20029;-71
2022/05/15 03:23:58;;;;;;;4.35;3.97;;;;;;;;;;5038438;28;20522;-70
2022/05/15 03:26:24;;;;;;;5.10;4.25;;;;;;;;;;5038513;28;20060;-70
2022/05/15 03:28:50;;;;;;;8.32;4.15;;;;;;;;;;5038130;28;20021;-69
2022/05/15 03:31:15;;;;;;;4.82;4.28;;;;;;;;;;5056105;28;20375;-69
2022/05/15 03:33:41;;;;;;;5.95;3.95;;;;;;;;;;5038201;28;20028;-69
2022/05/15 03:36:11;;;;;;;8.13;4.57;;;;;;;;;;5038256;28;20108;-70
2022/05/15 03:38:37;;;;;;;5.40;4.45;;;;;;;;;;5056166;28;20024;-70
2022/05/15 03:41:04;;;;;;;5.80;4.15;;;;;;;;;;5055844;28;20474;-70
2022/05/15 03:43:29;;;;;;;4.85;3.97;;;;;;;;;;5037762;28;20536;-70
2022/05/15 03:45:56;;;;;;;6.00;4.35;;;;;;;;;;5037937;28;20053;-70
2022/05/15 03:48:21;;;;;;;4.80;3.70;;;;;;;;;;5056175;28;20025;-70
2022/05/15 03:50:46;;;;;;;4.10;3.60;;;;;;;;;;5055663;28;20117;-70
2022/05/15 03:53:11;;;;;;;4.28;3.72;;;;;;;;;;5055950;28;20024;-70
2022/05/15 03:55:37;;;;;;;5.72;3.50;;;;;;;;;;5038018;28;20029;-70
2022/05/15 03:58:03;;;;;;;5.97;3.45;;;;;;;;;;5055493;28;20444;-70
2022/05/15 04:00:30;;;;;;;4.65;3.58;;;;;;;;;;5055786;28;20028;-70
2022/05/15 04:02:56;;;;;;;5.60;4.38;;;;;;;;;;5037867;28;20036;-70
2022/05/15 04:05:22;;;;;;;4.53;3.65;;;;;;;;;;5055311;28;20032;-70
2022/05/15 04:07:48;;;;;;;3.97;3.58;;;;;;;;;;5055483;28;20028;-69
2022/05/15 04:10:15;;;;;;;4.07;3.63;;;;;;;;;;5037750;28;20061;-70
2022/05/15 04:12:41;;;;;;;5.00;4.55;;;;;;;;;;5037427;28;20043;-70
2022/05/15 04:15:07;;;;;;;5.68;4.30;;;;;;;;;;5037634;28;20354;-70
2022/05/15 04:17:32;;;;;;;4.50;4.03;;;;;;;;;;5036777;28;20025;-70
2022/05/15 04:20:02;;;;;;;4.78;3.92;;;;;;;;;;5037073;28;20071;-69
2022/05/15 04:22:27;;;;;;;5.87;3.90;;;;;;;;;;5037468;28;20551;-69
2022/05/15 04:24:53;;;;;;;5.03;4.38;;;;;;;;;;5037269;28;20335;-69
2022/05/15 04:27:18;;;;;;;5.22;4.55;;;;;;;;;;5037498;28;20369;-70
2022/05/15 04:29:43;;;;;;;6.03;4.28;;;;;;;;;;5037338;28;20064;-70
2022/05/15 04:32:09;;;;;;;9.52;4.97;;;;;;;;;;5055228;28;20016;-70
2022/05/15 04:34:34;;;;;;;7.53;4.95;;;;;;;;;;5054724;28;20117;-70
2022/05/15 04:36:59;;;;;;;5.70;4.57;;;;;;;;;;5055037;28;20017;-70
2022/05/15 04:39:25;;;;;;;7.63;4.40;;;;;;;;;;5055031;28;20044;-70
2022/05/15 04:41:50;;;;;;;6.90;4.30;;;;;;;;;;5054994;28;20100;-70
2022/05/15 04:44:16;;;;;;;5.30;4.32;;;;;;;;;;5054680;28;20043;-70
2022/05/15 04:46:41;;;;;;;5.03;4.55;;;;;;;;;;5054762;28;20048;-71
2022/05/15 04:49:07;;;;;;;5.57;4.07;;;;;;;;;;5054423;28;20450;-73
2022/05/15 04:51:32;;;;;;;4.18;3.75;;;;;;;;;;5054626;28;20025;-75
2022/05/15 04:53:58;;;;;;;4.65;3.92;;;;;;;;;;5054449;28;20086;-74
2022/05/15 04:56:23;;;;;;;4.80;4.18;;;;;;;;;;5054621;28;20473;-74
2022/05/15 04:58:49;;;;;;;8.55;4.40;;;;;;;;;;5054439;28;20036;-72
2022/05/15 05:01:14;;;;;;;8.23;4.60;;;;;;;;;;5054768;28;20126;-74
2022/05/15 05:03:40;;;;;;;7.28;4.32;;;;;;;;;;5054581;28;20036;-74
2022/05/15 05:06:05;;;;;;;5.40;4.45;;;;;;;;;;5054420;28;20033;-74
2022/05/15 05:08:31;;;;;;;6.20;4.65;;;;;;;;;;5036120;28;20503;-74
2022/05/15 05:10:56;;;;;;;7.25;5.32;;;;;;;;;;5053867;28;20120;-74
2022/05/15 05:13:22;;;;;;;7.68;4.90;;;;;;;;;;5053901;28;20040;-74
2022/05/15 05:15:47;;;;;;;8.82;4.90;;;;;;;;;;5053824;28;20477;-74
2022/05/15 05:18:14;;;;;;;7.53;4.95;;;;;;;;;;5054127;28;20040;-74
2022/05/15 05:20:39;;;;;;;7.40;4.32;;;;;;;;;;5054136;28;20075;-74
2022/05/15 05:23:04;;;;;;;4.85;4.13;;;;;;;;;;5053776;28;20548;-73
2022/05/15 05:25:30;;;;;;;11.77;5.45;;;;;;;;;;5054094;28;20032;-75
2022/05/15 05:27:55;;;;;;;9.00;5.68;;;;;;;;;;5053563;28;20053;-74
2022/05/15 05:30:22;;;;;;;12.23;5.80;;;;;;;;;;5053650;28;20021;-72
2022/05/15 05:32:48;;;;;;;7.50;5.25;;;;;;;;;;5053457;28;20263;-75
2022/05/15 05:35:14;;;;;;;11.85;5.80;;;;;;;;;;5053387;28;20020;-75
2022/05/15 05:37:40;;;;;;;10.43;5.35;;;;;;;;;;5053233;28;20024;-75
2022/05/15 05:40:06;;;;;;;8.48;5.07;;;;;;;;;;5053416;28;20411;-75
2022/05/15 05:42:31;;;;;;;10.18;5.05;;;;;;;;;;5035242;28;20141;-75
2022/05/15 05:44:57;;;;;;;11.20;6.68;;;;;;;;;;5053331;28;20020;-75
2022/05/15 05:47:26;;;;;;;11.95;6.13;;;;;;;;;;5053238;28;20052;-75
2022/05/15 05:49:51;;;;;;;10.57;6.00;;;;;;;;;;5053202;28;20595;-75
2022/05/15 05:52:17;;;;;;;8.93;5.32;;;;;;;;;;5052822;28;20104;-75
2022/05/15 05:54:42;;;;;;;10.30;6.00;;;;;;;;;;5053134;28;20027;-75
2022/05/15 05:57:08;;;;;;;12.13;5.50;;;;;;;;;;5053297;28;20034;-75
2022/05/15 05:59:33;;;;;;;12.40;5.93;;;;;;;;;;5053079;28;20099;-75
2022/05/15 06:01:58;;;;;;;8.02;4.70;;;;;;;;;;5053164;28;20079;-75
2022/05/15 06:04:44;;;;;;;7.43;4.65;;;;;;;;;;5053132;28;20426;-74
2022/05/15 06:07:20;;;;;;;8.10;4.40;;;;;;;;;;5053110;28;20025;-75
2022/05/15 06:09:46;;;;;;;13.48;5.47;;;;;;;;;;5052940;28;20037;-75
2022/05/15 06:12:13;;;;;;;9.05;4.97;;;;;;;;;;5052891;28;20076;-75
2022/05/15 06:14:38;;;;;;;8.63;4.80;;;;;;;;;;5053058;28;20049;-75
2022/05/15 06:17:04;;;;;;;11.90;4.82;;;;;;;;;;5052149;28;20041;-75
2022/05/15 06:19:30;;;;;;;8.05;4.05;;;;;;;;;;5052279;28;20423;-75
2022/05/15 06:21:56;;;;;;;7.70;3.65;;;;;;;;;;5051964;28;20048;-75
2022/05/15 06:24:21;;;;;;;7.10;3.58;;;;;;;;;;5051942;28;20065;-75
2022/05/15 06:26:46;;;;;;;11.85;4.50;;;;;;;;;;5051909;28;20070;-75
2022/05/15 06:29:12;;;;;;;9.10;4.15;;;;;;;;;;5051769;28;20032;-75
2022/05/15 06:31:37;;;;;;;8.65;4.00;;;;;;;;;;5051898;28;20025;-75
2022/05/15 06:34:04;;;;;;;8.40;4.15;;;;;;;;;;5051798;28;20113;-75
2022/05/15 06:36:29;;;;;;;9.52;3.53;;;;;;;;;;5051834;28;20309;-75
2022/05/15 06:38:54;;;;;;;4.60;3.25;;;;;;;;;;5051841;28;20064;-75
2022/05/15 06:41:19;;;;;;;9.17;3.60;;;;;;;;;;5018506;28;20047;-74
2022/05/15 06:43:45;;;;;;;9.63;3.70;;;;;;;;;;5055490;28;20347;-74
2022/05/15 06:46:10;;;;;;;4.57;2.73;;;;;;;;;;5055454;28;20017;-75
2022/05/15 06:48:38;;;;;;;4.85;2.50;;;;;;;;;;5055362;28;20266;-75
2022/05/15 06:51:04;;;;;;;8.15;2.72;;;;;;;;;;5055312;28;20272;-75
2022/05/15 06:53:29;;;;;;;3.65;2.50;;;;;;;;;;5055289;28;20495;-75
2022/05/15 06:58:39;;;;;;;4.97;2.60;;;;;;;;;;5047166;28;20044;-75
2022/05/15 07:01:04;;;;;;;8.10;3.47;;;;;;;;;;5055152;28;20017;-74
2022/05/15 07:03:29;;;;;;;9.32;3.30;;;;;;;;;;5055151;28;20102;-75
2022/05/15 07:05:55;;;;;;;7.57;2.97;;;;;;;;;;5055096;28;20408;-75
2022/05/15 07:08:20;;;;;;;6.78;2.95;;;;;;;;;;5055021;28;20029;-75
2022/05/15 07:10:45;;;;;;;7.95;2.70;;;;;;;;;;5054684;28;20381;-75
2022/05/15 07:13:11;;;;;;;5.68;2.80;;;;;;;;;;5054918;28;20043;-74
2022/05/15 07:15:37;;;;;;;6.22;3.20;;;;;;;;;;5054859;28;20024;-75
2022/05/15 07:18:03;;;;;;;8.40;2.90;;;;;;;;;;5054866;28;20087;-75
2022/05/15 07:20:28;;;;;;;4.80;2.88;;;;;;;;;;5054782;28;20385;-75
2022/05/15 07:22:53;;;;;;;6.05;2.90;;;;;;;;;;5054772;28;20021;-75
2022/05/15 07:25:19;;;;;;;5.73;3.10;;;;;;;;;;5054729;28;20477;-75
2022/05/15 07:27:44;;;;;;;6.35;2.78;;;;;;;;;;5054670;28;20762;-74
2022/05/15 07:30:09;;;;;;;7.80;3.20;;;;;;;;;;5054577;28;20032;-75
2022/05/15 07:32:35;;;;;;;7.00;3.15;;;;;;;;;;5054627;28;20442;-74
2022/05/15 07:35:00;;;;;;;5.33;2.70;;;;;;;;;;5054502;28;20075;-75
2022/05/15 07:37:25;;;;;;;6.05;2.35;;;;;;;;;;5054458;28;20276;-75
2022/05/15 07:39:51;;;;;;;5.32;2.30;;;;;;;;;;5054729;28;20104;-75
2022/05/15 07:42:16;;;;;;;7.57;2.75;;;;;;;;;;5054374;28;20496;-75
2022/05/15 07:44:41;;;;;;;10.07;2.63;;;;;;;;;;5054416;28;20025;-75
2022/05/15 07:47:08;;;;;;;6.43;2.13;;;;;;;;;;5054296;28;20072;-75
2022/05/15 07:49:34;;;;;;;6.93;2.65;;;;;;;;;;5054321;28;20039;-75
2022/05/15 07:51:59;;;;;;;4.32;2.45;;;;;;;;;;5053179;28;20059;-75
2022/05/15 07:54:25;;;;;;;5.03;2.40;;;;;;;;;;5054155;28;20048;-75
2022/05/15 07:56:50;;;;;;;5.40;2.55;;;;;;;;;;5054136;28;20017;-75
2022/05/15 07:59:16;;;;;;;7.45;2.47;;;;;;;;;;5054123;28;20112;-75
2022/05/15 08:01:41;;;;;;;4.35;2.35;;;;;;;;;;5054379;28;20029;-75
2022/05/15 08:04:07;;;;;;;7.82;3.35;;;;;;;;;;5054205;28;20490;-75
2022/05/15 08:09:16;;;;;;;7.63;2.45;;;;;;;;;;5035952;28;20065;-75
2022/05/15 08:11:42;;;;;;;6.40;2.37;;;;;;;;;;5053733;28;20072;-75
2022/05/15 08:14:08;;;;;;;7.22;2.60;;;;;;;;;;5053828;28;20307;-75
2022/05/15 08:16:35;;;;;;;6.72;2.22;;;;;;;;;;5035933;28;20416;-74
2022/05/15 08:24:33;;;;;;;9.50;2.53;;;;;;;;;;5053880;28;20079;-75
2022/05/15 08:26:58;;;;;;;6.13;2.25;;;;;;;;;;5053550;28;20017;-74
2022/05/15 08:29:23;;;;;;;4.53;2.40;;;;;;;;;;5053477;28;20095;-75
2022/05/15 08:31:49;;;;;;;5.70;2.20;;;;;;;;;;5053410;28;20013;-74
2022/05/15 08:34:14;;;;;;;6.20;1.98;;;;;;;;;;5053414;28;20040;-78
2022/05/15 08:36:42;;;;;;;6.72;2.33;;;;;;;;;;5053330;28;20025;-79
2022/05/15 08:39:11;;;;;;;4.43;2.08;;;;;;;;;;5053294;28;20035;-79
2022/05/15 08:41:40;;;;;;;7.55;2.00;;;;;;;;;;5053238;28;20016;-78
2022/05/15 08:44:29;;;;;;;6.15;1.90;;;;;;;;;;5053242;28;20032;-79
2022/05/15 08:47:03;;;;;;;2.50;1.40;;;;;;;;;;5053172;28;20029;-78
2022/05/15 08:49:36;;;;;;;6.15;1.90;;;;;;;;;;5053030;28;20029;-79
2022/05/15 08:52:07;;;;;;;6.38;1.90;;;;;;;;;;5053065;28;20071;-79
2022/05/15 08:55:02;;;;;;;5.20;1.77;;;;;;;;;;5053053;28;20025;-79
2022/05/15 08:57:42;;;;;;;4.05;1.45;;;;;;;;;;5030175;28;20190;-78
2022/05/15 09:00:12;;;;;;;2.28;1.30;;;;;;;;;;5035092;28;20029;-78
2022/05/15 09:02:42;;;;;;;6.57;1.80;;;;;;;;;;5052699;28;20025;-79
2022/05/15 09:05:08;;;;;;;2.63;1.47;;;;;;;;;;5052855;28;20500;-78
2022/05/15 09:08:02;;;;;;;3.00;1.50;;;;;;;;;;5052815;28;20028;-78
2022/05/15 09:10:42;;;;;;;3.67;1.70;;;;;;;;;;5011771;28;20100;-78
2022/05/15 09:13:09;;;;;;;3.78;1.60;;;;;;;;;;5034862;28;20029;-77
2022/05/15 09:15:37;;;;;;;1.20;1.10;;;;;;;;;;5052671;28;20025;-78
2022/05/15 09:18:05;;;;;;;3.60;1.50;;;;;;;;;;5052650;28;20060;-78
2022/05/15 09:20:42;;;;;;;3.70;1.40;;;;;;;;;;5052608;28;20103;-78
2022/05/15 09:23:25;;;;;;;3.95;1.85;;;;;;;;;;5052534;28;20033;-78
2022/05/15 09:25:55;;;;;;;3.15;1.52;;;;;;;;;;5053036;28;20029;-77
2022/05/15 09:28:21;;;;;;;3.95;1.60;;;;;;;;;;5053817;28;20100;-76
2022/05/15 09:30:48;;;;;;;4.40;1.30;;;;;;;;;;5053975;28;20388;-78
2022/05/15 09:33:23;;;;;;;1.75;1.10;;;;;;;;;;5053304;28;20063;-72
2022/05/15 09:35:49;;;;;;;5.90;1.58;;;;;;;;;;5053275;28;20049;-73
2022/05/15 09:38:28;;;;;;;4.93;1.73;;;;;;;;;;5053381;28;20052;-73
2022/05/15 09:44:29;;;;;;;1.60;0.82;;;;;;;;;;5016431;28;20567;-73
2022/05/15 09:47:02;;;;;;;3.20;1.55;;;;;;;;;;5053200;28;20025;-73
2022/05/15 09:49:30;;;;;;;2.03;1.38;;;;;;;;;;5053109;28;20033;-73
2022/05/15 09:51:58;;;;;;;4.78;1.48;;;;;;;;;;5053131;28;20075;-73
2022/05/15 09:54:28;;;;;;;2.85;1.20;;;;;;;;;;5053093;28;20108;-73
2022/05/15 09:57:13;;;;;;;3.25;1.65;;;;;;;;;;5053141;28;20025;-73
2022/05/15 09:59:39;;;;;;;4.18;1.50;;;;;;;;;;5052374;28;20673;-73
2022/05/15 10:02:05;;;;;;;2.45;1.00;;;;;;;;;;5052131;28;20048;-73
2022/05/15 10:04:37;;;;;;;3.55;1.30;;;;;;;;;;5052107;28;20036;-73
2022/05/15 10:07:04;;;;;;;3.40;1.42;;;;;;;;;;5052138;28;20036;-73
2022/05/15 10:09:31;;;;;;;1.50;1.00;;;;;;;;;;5051668;28;20029;-73
2022/05/15 10:12:13;;;;;;;1.58;1.23;;;;;;;;;;5051745;28;20060;-72
2022/05/15 10:14:43;;;;;;;1.90;1.15;;;;;;;;;;5035939;28;20424;-71
2022/05/15 10:17:11;;;;;;;2.35;1.02;;;;;;;;;;5056900;28;20082;-70
2022/05/15 10:20:01;;;;;;;4.90;0.95;;;;;;;;;;5039462;28;20128;-71
2022/05/15 10:22:45;;;;;;;1.48;0.90;;;;;;;;;;5056950;28;20033;-71
2022/05/15 10:25:16;;;;;;;3.50;0.98;;;;;;;;;;5056778;28;20103;-71
2022/05/15 10:27:46;;;;;;;2.47;1.30;;;;;;;;;;5056775;28;20029;-71
2022/05/15 10:30:19;;;;;;;1.17;1.08;;;;;;;;;;5057304;28;20052;-71
2022/05/15 10:32:45;;;;;;;3.28;1.20;;;;;;;;;;5057212;28;20033;-71
2022/05/15 10:35:13;;;;;;;2.05;1.13;;;;;;;;;;5056975;28;20024;-71
2022/05/15 10:37:52;;;;;;;2.70;1.13;;;;;;;;;;5057237;28;20036;-71
2022/05/15 10:40:36;;;;;;;1.48;1.00;;;;;;;;;;5055760;28;20037;-71
2022/05/15 10:43:01;;;;;;;2.22;1.05;;;;;;;;;;5055656;28;20029;-71
2022/05/15 10:45:26;;;;;;;2.40;1.00;;;;;;;;;;5055714;28;20021;-71
2022/05/15 10:48:24;;;;;;;1.95;1.15;;;;;;;;;;5054752;28;20623;-71
2022/05/15 10:50:56;;;;;;;2.40;0.90;;;;;;;;;;5004930;28;20045;-71
2022/05/15 10:59:46;;;;;;;2.75;0.82;;;;;;;;;;5054206;28;20398;-71
2022/05/15 11:02:12;;;;;;;;;;;;;;;;;;5055934;28;20025;-71
2022/05/15 11:04:43;;;;;;;2.30;0.80;;;;;;;;;;5056207;28;19926;-71
2022/05/15 11:07:21;;;;;;;0.98;0.75;;;;;;;;;;5056162;28;20046;-71
2022/05/15 11:10:07;;;;;;;1.73;0.70;;;;;;;;;;5056024;28;20041;-71
2022/05/15 11:12:33;;;;;;;1.33;0.88;;;;;;;;;;5055938;28;20037;-71
2022/05/15 11:15:05;;;;;;;6.18;0.90;;;;;;;;;;5056143;28;20024;-71
2022/05/15 11:17:42;;;;;;;8.95;1.10;;;;;;;;;;5056112;28;20036;-71
2022/05/15 11:20:15;;;;;;;2.22;0.82;;;;;;;;;;5056037;28;20116;-71
2022/05/15 11:22:44;;;;;;;3.25;0.80;;;;;;;;;;5056424;28;20029;-71
2022/05/15 11:25:48;;;;;;;1.42;0.70;;;;;;;;;;5055828;28;20465;-71
2022/05/15 11:28:26;;;;;;;0.70;0.60;;;;;;;;;;4975038;28;20038;-71
2022/05/15 11:31:00;;;;;;;1.42;0.82;;;;;;;;;;4974945;28;20478;-71
2022/05/15 11:33:31;;;;;;;3.25;1.00;;;;;;;;;;5022152;28;20397;-71
2022/05/15 11:36:14;;;;;;;2.67;0.80;;;;;;;;;;5055624;28;20043;-71
2022/05/15 11:38:45;;;;;;;1.05;0.63;;;;;;;;;;5055706;28;20393;-71
2022/05/15 11:41:31;;;;;;;2.05;0.98;;;;;;;;;;5055536;28;20492;-71
2022/05/15 11:43:58;;;;;;;1.80;0.77;;;;;;;;;;5055589;28;20037;-71
2022/05/15 11:46:43;;;;;;;1.02;0.60;;;;;;;;;;5055475;28;20028;-71
2022/05/15 11:49:14;;;;;;;2.05;0.60;;;;;;;;;;5055161;28;20158;-71
2022/05/15 11:51:39;;;;;;;1.20;0.73;;;;;;;;;;5055511;28;20049;-71
2022/05/15 11:54:07;;;;;;;1.10;0.70;;;;;;;;;;5055354;28;20496;-71
2022/05/15 11:56:40;;;;;;;0.88;0.88;;;;;;;;;;5055251;28;20032;-71
2022/05/15 11:59:15;;;;;;;1.20;0.80;;;;;;;;;;5055372;28;20036;-71
2022/05/15 12:01:51;;;;;;;3.33;0.88;;;;;;;;;;5055185;28;20503;-71
2022/05/15 12:04:25;;;;;;;2.60;0.82;;;;;;;;;;5055126;28;20029;-71
2022/05/15 12:06:56;;;;;;;0.60;0.60;;;;;;;;;;5055103;28;20033;-71
2022/05/15 12:09:51;;;;;;;1.30;0.63;;;;;;;;;;5055003;28;20037;-71
2022/05/15 12:12:19;;;;;;;1.45;0.63;;;;;;;;;;5030771;28;20102;-71
2022/05/15 12:15:03;;;;;;;1.75;0.77;;;;;;;;;;5054930;28;20032;-71
2022/05/15 12:17:30;;;;;;;1.67;0.70;;;;;;;;;;5055005;28;20074;-71
2022/05/15 12:20:06;;;;;;;2.45;0.70;;;;;;;;;;5054781;28;20496;-71
2022/05/15 12:22:36;;;;;;;1.15;0.80;;;;;;;;;;5054883;28;20083;-71
2022/05/15 12:25:08;;;;;;;5.07;0.85;;;;;;;;;;5054870;28;20446;-71
2022/05/15 12:27:35;;;;;;;0.85;0.73;;;;;;;;;;5054664;28;20362;-71
2022/05/15 12:30:13;;;;;;;1.58;0.70;;;;;;;;;;5054500;28;20453;-71
2022/05/15 12:32:47;;;;;;;1.08;0.57;;;;;;;;;;5054700;28;20021;-71
2022/05/15 12:35:20;;;;;;;0.80;0.60;;;;;;;;;;5054589;28;20029;-71
2022/05/15 12:37:48;;;;;;;2.13;0.77;;;;;;;;;;5054018;28;20500;-71
2022/05/15 12:40:14;;;;;;;0.93;0.65;;;;;;;;;;5054706;28;20111;-71
2022/05/15 12:42:41;;;;;;;1.75;0.70;;;;;;;;;;5054533;28;20041;-71
2022/05/15 12:45:12;;;;;;;0.80;0.70;;;;;;;;;;5054329;28;20017;-71
2022/05/15 12:47:38;;;;;;;0.88;0.85;;;;;;;;;;5036454;28;20127;-71
2022/05/15 12:50:23;;;;;;;1.27;0.75;;;;;;;;;;5054133;28;20112;-71
2022/05/15 12:52:52;;;;;;;1.55;0.70;;;;;;;;;;5053942;28;20064;-71
2022/05/15 12:55:24;;;;;;;1.33;0.63;;;;;;;;;;5054445;28;20013;-71
2022/05/15 12:57:53;;;;;;;1.70;0.70;;;;;;;;;;5054251;28;20017;-71
2022/05/15 13:00:20;;;;;;;0.95;0.75;;;;;;;;;;5054076;28;20017;-71
2022/05/15 13:02:47;;;;;;;0.63;0.55;;;;;;;;;;5054006;28;20030;-71
2022/05/15 13:05:21;;;;;;;1.00;0.70;;;;;;;;;;5054137;28;20100;-71
2022/05/15 13:07:52;;;;;;;0.68;0.55;;;;;;;;;;5053970;28;20044;-71
2022/05/15 13:10:20;;;;;;;1.38;0.77;;;;;;;;;;5053803;28;20507;-71
2022/05/15 13:12:51;;;;;;;2.58;0.70;;;;;;;;;;5053635;28;20072;-70
2022/05/15 13:15:20;;;;;;;1.00;0.90;;;;;;;;;;5053786;28;20025;-70
2022/05/15 13:17:45;;;;;;;0.75;0.70;;;;;;;;;;5053786;28;20067;-70
2022/05/15 13:20:14;;;;;;;6.63;0.90;;;;;;;;;;5053744;28;20033;-70
2022/05/15 13:22:39;;;;;;;0.82;0.70;;;;;;;;;;5053726;28;20081;-71
2022/05/15 13:25:18;;;;;;;0.70;0.60;;;;;;;;;;5053747;28;20107;-71
2022/05/15 13:27:44;;;;;;;0.88;0.80;;;;;;;;;;5053705;28;20469;-71
2022/05/15 13:30:12;;;;;;;0.82;0.60;;;;;;;;;;5053527;28;20021;-71
2022/05/15 13:32:39;;;;;;;1.77;0.90;;;;;;;;;;5053575;28;20025;-71
2022/05/15 13:35:06;;;;;;;1.27;0.50;;;;;;;;;;5035711;28;20150;-70
2022/05/15 13:37:35;;;;;;;1.85;0.70;;;;;;;;;;5053507;28;20048;-71
2022/05/15 13:45:31;;;;;;;1.67;0.70;;;;;;;;;;5053494;28;20060;-71
2022/05/15 13:48:03;;;;;;;1.17;0.73;;;;;;;;;;5053383;28;20025;-71
2022/05/15 13:50:35;;;;;;;1.65;0.80;;;;;;;;;;5052623;28;20465;-71
2022/05/15 13:53:20;;;;;;;0.68;0.50;;;;;;;;;;5053488;28;20029;-71
2022/05/15 13:55:46;;;;;;;0.77;0.70;;;;;;;;;;5053520;28;20416;-71
2022/05/15 13:58:11;;;;;;;0.95;0.60;;;;;;;;;;5035580;28;20024;-71
2022/05/15 14:00:39;;;;;;;2.95;0.80;;;;;;;;;;5053283;28;20047;-71
2022/05/15 14:03:09;;;;;;;1.90;0.68;;;;;;;;;;5053235;28;20027;-71
2022/05/15 14:05:36;;;;;;;0.82;0.73;;;;;;;;;;5053305;28;20051;-71
2022/05/15 14:08:07;;;;;;;1.13;0.70;;;;;;;;;;5053588;28;20520;-71
2022/05/15 14:10:34;;;;;;;0.95;0.60;;;;;;;;;;5053198;28;20370;-71
2022/05/15 14:13:01;;;;;;;0.85;0.80;;;;;;;;;;5053025;28;20507;-71
2022/05/15 14:15:36;;;;;;;0.82;0.63;;;;;;;;;;5053155;28;20044;-71
2022/05/15 14:18:03;;;;;;;0.63;0.50;;;;;;;;;;5053312;28;20025;-71
2022/05/15 14:20:30;;;;;;;1.35;0.52;;;;;;;;;;5053067;28;20021;-71
2022/05/15 14:22:56;;;;;;;0.95;0.60;;;;;;;;;;5053081;28;20032;-71
2022/05/15 14:25:22;;;;;;;1.50;0.60;;;;;;;;;;5053093;28;20142;-71
2022/05/15 14:27:48;;;;;;;1.25;0.70;;;;;;;;;;5053015;28;20040;-71
2022/05/15 14:30:13;;;;;;;0.95;0.60;;;;;;;;;;5052964;28;20029;-71
2022/05/15 14:32:38;;;;;;;2.88;0.80;;;;;;;;;;5052927;28;20045;-71
2022/05/15 14:35:08;;;;;;;0.97;0.70;;;;;;;;;;5053033;28;20032;-71
2022/05/15 14:37:34;;;;;;;1.58;0.57;;;;;;;;;;5053101;28;20690;-71
2022/05/15 14:39:59;;;;;;;0.55;0.55;;;;;;;;;;5052917;28;20024;-71
2022/05/15 14:42:27;;;;;;;1.30;0.70;;;;;;;;;;5052982;28;20021;-71
2022/05/15 14:44:57;;;;;;;0.95;0.70;;;;;;;;;;5052862;28;20099;-71
2022/05/15 14:47:24;;;;;;;0.43;0.43;;;;;;;;;;5052852;28;20037;-71
2022/05/15 14:49:51;;;;;;;1.27;0.52;;;;;;;;;;5052746;28;20429;-71
2022/05/15 14:52:18;;;;;;;1.23;0.50;;;;;;;;;;5052832;28;20492;-71
2022/05/15 14:54:43;;;;;;;3.28;0.65;;;;;;;;;;5052790;28;20021;-71
2022/05/15 14:57:09;;;;;;;0.98;0.65;;;;;;;;;;5052786;28;20086;-71
2022/05/15 14:59:38;;;;;;;0.57;0.57;;;;;;;;;;5052751;28;20029;-71
2022/05/15 15:02:03;;;;;;;1.08;0.68;;;;;;;;;;5055473;28;20033;-71
2022/05/15 15:04:28;;;;;;;1.33;0.40;;;;;;;;;;5056186;28;20146;-71
2022/05/15 15:06:54;;;;;;;0.82;0.50;;;;;;;;;;5056341;28;20123;-71
2022/05/15 15:09:20;;;;;;;0.70;0.52;;;;;;;;;;5056094;28;20021;-71
2022/05/15 15:11:47;;;;;;;0.68;0.52;;;;;;;;;;5056029;28;20052;-71
2022/05/15 15:14:13;;;;;;;2.25;0.52;;;;;;;;;;5056049;28;20025;-71
2022/05/15 15:16:39;;;;;;;1.45;0.80;;;;;;;;;;5056157;28;20167;-71
2022/05/15 15:19:05;;;;;;;2.58;0.65;;;;;;;;;;5056004;28;20112;-71